sensor_id;sensor_type;location;lat;lon;timestamp;P1;durP1;ratioP1;P2;durP2;ratioP2
53151;SDS011;39234;53.158;6.322;2023-06-22T00:00:52;12.98;;;11.60;;
53151;SDS011;39234;53.158;6.322;2023-06-22T00:03:18;12.95;;;11.30;;
53151;SDS011;39234;53.158;6.322;2023-06-22T00:05:45;11.13;;;9.90;;
53151;SDS011;39234;53.158;6.322;2023-06-22T00:08:11;12.30;;;11.07;;
53151;SDS011;39234;53.158;6.322;2023-06-22T00:10:38;17.30;;;15.00;;
53151;SDS011;39234;53.158;6.322;2023-06-22T00:13:04;17.98;;;14.85;;
53151;SDS011;39234;53.158;6.322;2023-06-22T00:15:30;18.85;;;16.80;;
53151;SDS011;39234;53.158;6.322;2023-06-22T00:17:56;19.48;;;16.83;;
53151;SDS011;39234;53.158;6.322;2023-06-22T00:20:22;18.92;;;15.50;;
53151;SDS011;39234;53.158;6.322;2023-06-22T00:22:52;22.23;;;18.58;;
53151;SDS011;39234;53.158;6.322;2023-06-22T00:25:22;28.77;;;19.92;;
53151;SDS011;39234;53.158;6.322;2023-06-22T00:27:49;25.40;;;17.98;;
53151;SDS011;39234;53.158;6.322;2023-06-22T00:30:15;26.70;;;19.92;;
53151;SDS011;39234;53.158;6.322;2023-06-22T00:32:42;21.45;;;17.58;;
53151;SDS011;39234;53.158;6.322;2023-06-22T00:35:14;26.80;;;22.40;;
53151;SDS011;39234;53.158;6.322;2023-06-22T00:37:40;21.80;;;17.08;;
53151;SDS011;39234;53.158;6.322;2023-06-22T00:40:09;23.10;;;17.27;;
53151;SDS011;39234;53.158;6.322;2023-06-22T00:42:38;19.30;;;16.53;;
53151;SDS011;39234;53.158;6.322;2023-06-22T00:45:04;17.65;;;15.75;;
53151;SDS011;39234;53.158;6.322;2023-06-22T00:47:31;18.02;;;15.27;;
53151;SDS011;39234;53.158;6.322;2023-06-22T00:49:57;18.08;;;15.55;;
53151;SDS011;39234;53.158;6.322;2023-06-22T00:52:23;16.45;;;14.65;;
53151;SDS011;39234;53.158;6.322;2023-06-22T00:54:54;15.00;;;13.38;;
53151;SDS011;39234;53.158;6.322;2023-06-22T00:57:21;17.75;;;14.70;;
53151;SDS011;39234;53.158;6.322;2023-06-22T00:59:50;18.75;;;15.23;;
53151;SDS011;39234;53.158;6.322;2023-06-22T01:02:16;16.02;;;14.43;;
53151;SDS011;39234;53.158;6.322;2023-06-22T01:04:42;20.10;;;13.98;;
53151;SDS011;39234;53.158;6.322;2023-06-22T01:10:13;17.00;;;14.18;;
53151;SDS011;39234;53.158;6.322;2023-06-22T01:12:44;14.23;;;12.15;;
53151;SDS011;39234;53.158;6.322;2023-06-22T01:15:15;16.80;;;12.98;;
53151;SDS011;39234;53.158;6.322;2023-06-22T01:17:48;14.02;;;12.10;;
53151;SDS011;39234;53.158;6.322;2023-06-22T01:20:17;15.35;;;12.60;;
53151;SDS011;39234;53.158;6.322;2023-06-22T01:28:42;15.98;;;14.27;;
53151;SDS011;39234;53.158;6.322;2023-06-22T01:31:10;16.17;;;12.75;;
53151;SDS011;39234;53.158;6.322;2023-06-22T01:33:41;15.43;;;12.40;;
53151;SDS011;39234;53.158;6.322;2023-06-22T01:36:09;15.75;;;12.63;;
53151;SDS011;39234;53.158;6.322;2023-06-22T01:38:35;16.90;;;14.18;;
53151;SDS011;39234;53.158;6.322;2023-06-22T01:41:03;139.13;;;25.30;;
53151;SDS011;39234;53.158;6.322;2023-06-22T01:43:29;32.00;;;18.35;;
53151;SDS011;39234;53.158;6.322;2023-06-22T01:45:56;17.77;;;15.85;;
53151;SDS011;39234;53.158;6.322;2023-06-22T01:48:23;18.13;;;16.17;;
53151;SDS011;39234;53.158;6.322;2023-06-22T01:50:51;20.88;;;17.20;;
53151;SDS011;39234;53.158;6.322;2023-06-22T01:53:20;19.83;;;17.77;;
53151;SDS011;39234;53.158;6.322;2023-06-22T01:55:46;18.90;;;17.05;;
53151;SDS011;39234;53.158;6.322;2023-06-22T01:58:13;16.02;;;14.52;;
53151;SDS011;39234;53.158;6.322;2023-06-22T02:00:39;13.32;;;12.02;;
53151;SDS011;39234;53.158;6.322;2023-06-22T02:03:10;12.50;;;11.23;;
53151;SDS011;39234;53.158;6.322;2023-06-22T02:05:46;13.10;;;11.52;;
53151;SDS011;39234;53.158;6.322;2023-06-22T02:08:19;13.10;;;11.90;;
53151;SDS011;39234;53.158;6.322;2023-06-22T02:10:54;12.20;;;11.00;;
53151;SDS011;39234;53.158;6.322;2023-06-22T02:13:23;11.25;;;10.15;;
53151;SDS011;39234;53.158;6.322;2023-06-22T02:15:50;13.35;;;11.88;;
53151;SDS011;39234;53.158;6.322;2023-06-22T02:18:16;16.98;;;14.07;;
53151;SDS011;39234;53.158;6.322;2023-06-22T02:20:42;20.88;;;16.95;;
53151;SDS011;39234;53.158;6.322;2023-06-22T02:23:08;33.22;;;17.00;;
53151;SDS011;39234;53.158;6.322;2023-06-22T02:25:34;11.18;;;10.15;;
53151;SDS011;39234;53.158;6.322;2023-06-22T02:28:00;34.17;;;18.13;;
53151;SDS011;39234;53.158;6.322;2023-06-22T02:30:26;16.95;;;14.43;;
53151;SDS011;39234;53.158;6.322;2023-06-22T02:32:52;29.55;;;13.63;;
53151;SDS011;39234;53.158;6.322;2023-06-22T02:35:27;20.98;;;14.07;;
53151;SDS011;39234;53.158;6.322;2023-06-22T02:37:57;22.10;;;12.55;;
53151;SDS011;39234;53.158;6.322;2023-06-22T02:40:24;14.68;;;13.32;;
53151;SDS011;39234;53.158;6.322;2023-06-22T02:42:50;13.77;;;12.43;;
53151;SDS011;39234;53.158;6.322;2023-06-22T02:45:16;13.50;;;12.23;;
53151;SDS011;39234;53.158;6.322;2023-06-22T02:47:41;13.55;;;12.35;;
53151;SDS011;39234;53.158;6.322;2023-06-22T02:50:07;13.05;;;11.75;;
53151;SDS011;39234;53.158;6.322;2023-06-22T02:52:33;14.10;;;12.77;;
53151;SDS011;39234;53.158;6.322;2023-06-22T02:54:59;81.07;;;14.15;;
53151;SDS011;39234;53.158;6.322;2023-06-22T02:57:25;32.55;;;19.77;;
53151;SDS011;39234;53.158;6.322;2023-06-22T02:59:51;17.48;;;14.32;;
53151;SDS011;39234;53.158;6.322;2023-06-22T03:02:16;28.23;;;15.20;;
53151;SDS011;39234;53.158;6.322;2023-06-22T03:04:42;15.38;;;13.98;;
53151;SDS011;39234;53.158;6.322;2023-06-22T03:07:09;14.88;;;13.45;;
53151;SDS011;39234;53.158;6.322;2023-06-22T03:09:35;14.70;;;13.43;;
53151;SDS011;39234;53.158;6.322;2023-06-22T03:12:00;14.07;;;12.73;;
53151;SDS011;39234;53.158;6.322;2023-06-22T03:14:27;13.77;;;12.45;;
53151;SDS011;39234;53.158;6.322;2023-06-22T03:16:53;12.20;;;11.00;;
53151;SDS011;39234;53.158;6.322;2023-06-22T03:19:18;15.38;;;13.75;;
53151;SDS011;39234;53.158;6.322;2023-06-22T03:21:46;18.98;;;16.27;;
53151;SDS011;39234;53.158;6.322;2023-06-22T03:24:12;16.75;;;15.05;;
53151;SDS011;39234;53.158;6.322;2023-06-22T03:26:38;16.02;;;14.43;;
53151;SDS011;39234;53.158;6.322;2023-06-22T03:29:03;16.45;;;14.77;;
53151;SDS011;39234;53.158;6.322;2023-06-22T03:31:29;16.95;;;15.35;;
53151;SDS011;39234;53.158;6.322;2023-06-22T03:33:55;18.67;;;13.38;;
53151;SDS011;39234;53.158;6.322;2023-06-22T03:36:21;17.38;;;15.68;;
53151;SDS011;39234;53.158;6.322;2023-06-22T03:38:48;15.15;;;13.75;;
53151;SDS011;39234;53.158;6.322;2023-06-22T03:41:15;15.80;;;14.20;;
53151;SDS011;39234;53.158;6.322;2023-06-22T03:43:41;15.57;;;14.07;;
53151;SDS011;39234;53.158;6.322;2023-06-22T03:46:07;14.10;;;12.60;;
53151;SDS011;39234;53.158;6.322;2023-06-22T03:48:33;14.77;;;13.35;;
53151;SDS011;39234;53.158;6.322;2023-06-22T03:50:59;17.15;;;15.38;;
53151;SDS011;39234;53.158;6.322;2023-06-22T03:53:25;14.32;;;12.93;;
53151;SDS011;39234;53.158;6.322;2023-06-22T03:55:51;16.40;;;14.55;;
53151;SDS011;39234;53.158;6.322;2023-06-22T03:58:18;16.98;;;15.10;;
53151;SDS011;39234;53.158;6.322;2023-06-22T04:00:45;19.08;;;16.70;;
53151;SDS011;39234;53.158;6.322;2023-06-22T04:03:15;25.80;;;22.70;;
53151;SDS011;39234;53.158;6.322;2023-06-22T04:05:41;25.58;;;22.88;;
53151;SDS011;39234;53.158;6.322;2023-06-22T04:08:07;23.15;;;20.33;;
53151;SDS011;39234;53.158;6.322;2023-06-22T04:10:33;20.85;;;18.65;;
53151;SDS011;39234;53.158;6.322;2023-06-22T04:12:59;19.77;;;17.77;;
53151;SDS011;39234;53.158;6.322;2023-06-22T04:15:25;18.20;;;16.30;;
53151;SDS011;39234;53.158;6.322;2023-06-22T04:17:51;20.40;;;18.30;;
53151;SDS011;39234;53.158;6.322;2023-06-22T04:20:17;19.15;;;16.85;;
53151;SDS011;39234;53.158;6.322;2023-06-22T04:22:43;21.08;;;18.42;;
53151;SDS011;39234;53.158;6.322;2023-06-22T04:25:09;22.90;;;20.38;;
53151;SDS011;39234;53.158;6.322;2023-06-22T04:27:34;21.40;;;19.20;;
53151;SDS011;39234;53.158;6.322;2023-06-22T04:30:04;25.15;;;20.27;;
53151;SDS011;39234;53.158;6.322;2023-06-22T04:32:34;25.45;;;22.23;;
53151;SDS011;39234;53.158;6.322;2023-06-22T04:35:03;51.22;;;30.73;;
53151;SDS011;39234;53.158;6.322;2023-06-22T04:37:30;78.28;;;32.40;;
53151;SDS011;39234;53.158;6.322;2023-06-22T04:39:56;33.13;;;28.45;;
53151;SDS011;39234;53.158;6.322;2023-06-22T04:42:22;37.50;;;30.67;;
53151;SDS011;39234;53.158;6.322;2023-06-22T04:44:48;29.10;;;25.33;;
53151;SDS011;39234;53.158;6.322;2023-06-22T04:47:13;36.45;;;32.58;;
53151;SDS011;39234;53.158;6.322;2023-06-22T04:49:39;49.20;;;38.97;;
53151;SDS011;39234;53.158;6.322;2023-06-22T04:52:08;41.50;;;33.97;;
53151;SDS011;39234;53.158;6.322;2023-06-22T04:54:36;35.50;;;30.92;;
53151;SDS011;39234;53.158;6.322;2023-06-22T04:57:03;65.05;;;39.40;;
53151;SDS011;39234;53.158;6.322;2023-06-22T04:59:35;56.20;;;42.53;;
53151;SDS011;39234;53.158;6.322;2023-06-22T05:02:01;42.65;;;35.95;;
53151;SDS011;39234;53.158;6.322;2023-06-22T05:04:28;54.28;;;41.47;;
53151;SDS011;39234;53.158;6.322;2023-06-22T05:06:58;54.90;;;43.60;;
53151;SDS011;39234;53.158;6.322;2023-06-22T05:09:27;54.88;;;41.33;;
53151;SDS011;39234;53.158;6.322;2023-06-22T05:11:54;63.42;;;45.42;;
53151;SDS011;39234;53.158;6.322;2023-06-22T05:14:21;52.40;;;41.67;;
53151;SDS011;39234;53.158;6.322;2023-06-22T05:16:48;53.22;;;41.03;;
53151;SDS011;39234;53.158;6.322;2023-06-22T05:19:14;50.85;;;41.30;;
53151;SDS011;39234;53.158;6.322;2023-06-22T05:21:40;46.95;;;39.42;;
53151;SDS011;39234;53.158;6.322;2023-06-22T05:24:05;48.13;;;39.88;;
53151;SDS011;39234;53.158;6.322;2023-06-22T05:26:33;43.88;;;39.00;;
53151;SDS011;39234;53.158;6.322;2023-06-22T05:29:00;36.63;;;32.70;;
53151;SDS011;39234;53.158;6.322;2023-06-22T05:31:27;47.38;;;37.00;;
53151;SDS011;39234;53.158;6.322;2023-06-22T05:33:53;43.53;;;38.85;;
53151;SDS011;39234;53.158;6.322;2023-06-22T05:36:19;38.03;;;32.72;;
53151;SDS011;39234;53.158;6.322;2023-06-22T05:38:46;39.65;;;35.38;;
53151;SDS011;39234;53.158;6.322;2023-06-22T05:41:12;42.75;;;36.88;;
53151;SDS011;39234;53.158;6.322;2023-06-22T05:43:39;41.22;;;35.88;;
53151;SDS011;39234;53.158;6.322;2023-06-22T05:46:06;40.67;;;34.88;;
53151;SDS011;39234;53.158;6.322;2023-06-22T05:48:31;51.00;;;38.72;;
53151;SDS011;39234;53.158;6.322;2023-06-22T05:50:57;48.95;;;39.85;;
53151;SDS011;39234;53.158;6.322;2023-06-22T05:53:23;49.00;;;37.70;;
53151;SDS011;39234;53.158;6.322;2023-06-22T05:55:49;48.92;;;38.15;;
53151;SDS011;39234;53.158;6.322;2023-06-22T05:58:15;49.22;;;39.25;;
53151;SDS011;39234;53.158;6.322;2023-06-22T06:00:41;44.65;;;36.58;;
53151;SDS011;39234;53.158;6.322;2023-06-22T06:03:08;43.95;;;34.58;;
53151;SDS011;39234;53.158;6.322;2023-06-22T06:05:35;41.55;;;34.13;;
53151;SDS011;39234;53.158;6.322;2023-06-22T06:08:01;42.75;;;34.47;;
53151;SDS011;39234;53.158;6.322;2023-06-22T06:10:29;42.03;;;36.13;;
53151;SDS011;39234;53.158;6.322;2023-06-22T06:12:56;43.25;;;35.60;;
53151;SDS011;39234;53.158;6.322;2023-06-22T06:15:22;43.42;;;36.47;;
53151;SDS011;39234;53.158;6.322;2023-06-22T06:17:48;40.60;;;33.50;;
53151;SDS011;39234;53.158;6.322;2023-06-22T06:20:18;37.20;;;32.92;;
53151;SDS011;39234;53.158;6.322;2023-06-22T06:22:45;38.70;;;34.50;;
53151;SDS011;39234;53.158;6.322;2023-06-22T06:25:11;41.22;;;33.78;;
53151;SDS011;39234;53.158;6.322;2023-06-22T06:27:41;38.08;;;31.33;;
53151;SDS011;39234;53.158;6.322;2023-06-22T06:30:11;37.88;;;32.70;;
53151;SDS011;39234;53.158;6.322;2023-06-22T06:32:37;39.72;;;33.30;;
53151;SDS011;39234;53.158;6.322;2023-06-22T06:35:07;36.35;;;32.42;;
53151;SDS011;39234;53.158;6.322;2023-06-22T06:37:42;33.55;;;29.90;;
53151;SDS011;39234;53.158;6.322;2023-06-22T06:40:09;38.00;;;31.98;;
53151;SDS011;39234;53.158;6.322;2023-06-22T06:42:40;38.13;;;30.27;;
53151;SDS011;39234;53.158;6.322;2023-06-22T06:45:09;37.90;;;30.95;;
53151;SDS011;39234;53.158;6.322;2023-06-22T06:47:36;33.03;;;29.45;;
53151;SDS011;39234;53.158;6.322;2023-06-22T06:50:03;36.22;;;32.33;;
53151;SDS011;39234;53.158;6.322;2023-06-22T06:52:29;36.40;;;30.95;;
53151;SDS011;39234;53.158;6.322;2023-06-22T06:54:55;32.92;;;29.17;;
53151;SDS011;39234;53.158;6.322;2023-06-22T06:57:21;31.92;;;27.13;;
53151;SDS011;39234;53.158;6.322;2023-06-22T06:59:48;32.88;;;28.05;;
53151;SDS011;39234;53.158;6.322;2023-06-22T07:02:14;27.38;;;24.42;;
53151;SDS011;39234;53.158;6.322;2023-06-22T07:04:40;31.52;;;26.90;;
53151;SDS011;39234;53.158;6.322;2023-06-22T07:07:06;31.15;;;26.27;;
53151;SDS011;39234;53.158;6.322;2023-06-22T07:09:32;30.17;;;25.77;;
53151;SDS011;39234;53.158;6.322;2023-06-22T07:11:58;24.88;;;21.33;;
53151;SDS011;39234;53.158;6.322;2023-06-22T07:14:23;21.83;;;18.73;;
53151;SDS011;39234;53.158;6.322;2023-06-22T07:16:49;21.85;;;19.55;;
53151;SDS011;39234;53.158;6.322;2023-06-22T07:19:15;26.58;;;19.45;;
53151;SDS011;39234;53.158;6.322;2023-06-22T07:21:40;20.85;;;14.82;;
53151;SDS011;39234;53.158;6.322;2023-06-22T07:24:06;16.52;;;13.57;;
53151;SDS011;39234;53.158;6.322;2023-06-22T07:26:32;16.63;;;14.70;;
53151;SDS011;39234;53.158;6.322;2023-06-22T07:28:58;17.73;;;14.23;;
53151;SDS011;39234;53.158;6.322;2023-06-22T07:31:25;18.10;;;12.95;;
53151;SDS011;39234;53.158;6.322;2023-06-22T07:33:51;15.80;;;12.65;;
53151;SDS011;39234;53.158;6.322;2023-06-22T07:36:17;13.77;;;11.63;;
53151;SDS011;39234;53.158;6.322;2023-06-22T07:38:43;14.63;;;11.32;;
53151;SDS011;39234;53.158;6.322;2023-06-22T07:41:09;15.43;;;10.40;;
53151;SDS011;39234;53.158;6.322;2023-06-22T07:43:35;13.38;;;10.93;;
53151;SDS011;39234;53.158;6.322;2023-06-22T07:46:04;11.48;;;9.30;;
53151;SDS011;39234;53.158;6.322;2023-06-22T07:48:31;12.10;;;9.05;;
53151;SDS011;39234;53.158;6.322;2023-06-22T07:50:57;11.15;;;8.68;;
53151;SDS011;39234;53.158;6.322;2023-06-22T07:53:23;12.20;;;9.40;;
53151;SDS011;39234;53.158;6.322;2023-06-22T07:55:49;12.35;;;9.48;;
53151;SDS011;39234;53.158;6.322;2023-06-22T07:58:15;11.23;;;9.13;;
53151;SDS011;39234;53.158;6.322;2023-06-22T08:00:43;13.55;;;9.20;;
53151;SDS011;39234;53.158;6.322;2023-06-22T08:03:09;11.05;;;8.88;;
53151;SDS011;39234;53.158;6.322;2023-06-22T08:05:35;11.70;;;8.30;;
53151;SDS011;39234;53.158;6.322;2023-06-22T08:08:01;10.68;;;9.15;;
53151;SDS011;39234;53.158;6.322;2023-06-22T08:10:26;12.93;;;8.75;;
53151;SDS011;39234;53.158;6.322;2023-06-22T08:12:52;10.23;;;9.13;;
53151;SDS011;39234;53.158;6.322;2023-06-22T08:15:18;11.48;;;8.98;;
53151;SDS011;39234;53.158;6.322;2023-06-22T08:17:44;11.60;;;8.93;;
53151;SDS011;39234;53.158;6.322;2023-06-22T08:20:13;12.27;;;8.48;;
53151;SDS011;39234;53.158;6.322;2023-06-22T08:22:39;11.43;;;8.82;;
53151;SDS011;39234;53.158;6.322;2023-06-22T08:25:08;12.25;;;8.55;;
53151;SDS011;39234;53.158;6.322;2023-06-22T08:27:34;13.93;;;9.63;;
53151;SDS011;39234;53.158;6.322;2023-06-22T08:30:01;12.07;;;9.93;;
53151;SDS011;39234;53.158;6.322;2023-06-22T08:32:27;12.63;;;9.20;;
53151;SDS011;39234;53.158;6.322;2023-06-22T08:34:57;13.13;;;9.85;;
53151;SDS011;39234;53.158;6.322;2023-06-22T08:37:23;10.43;;;9.20;;
53151;SDS011;39234;53.158;6.322;2023-06-22T08:39:50;11.32;;;9.48;;
53151;SDS011;39234;53.158;6.322;2023-06-22T08:42:15;12.43;;;9.82;;
53151;SDS011;39234;53.158;6.322;2023-06-22T08:44:41;10.27;;;8.77;;
53151;SDS011;39234;53.158;6.322;2023-06-22T08:47:07;12.13;;;9.93;;
53151;SDS011;39234;53.158;6.322;2023-06-22T08:49:33;12.20;;;10.43;;
53151;SDS011;39234;53.158;6.322;2023-06-22T08:51:58;13.40;;;9.50;;
53151;SDS011;39234;53.158;6.322;2023-06-22T08:54:24;13.68;;;9.57;;
53151;SDS011;39234;53.158;6.322;2023-06-22T08:56:50;14.02;;;9.43;;
53151;SDS011;39234;53.158;6.322;2023-06-22T08:59:15;9.98;;;7.38;;
53151;SDS011;39234;53.158;6.322;2023-06-22T09:01:41;10.60;;;8.02;;
53151;SDS011;39234;53.158;6.322;2023-06-22T09:04:10;10.75;;;8.50;;
53151;SDS011;39234;53.158;6.322;2023-06-22T09:06:37;10.77;;;8.60;;
53151;SDS011;39234;53.158;6.322;2023-06-22T09:09:09;13.98;;;10.02;;
53151;SDS011;39234;53.158;6.322;2023-06-22T09:11:36;15.20;;;9.73;;
53151;SDS011;39234;53.158;6.322;2023-06-22T09:14:01;13.63;;;9.07;;
53151;SDS011;39234;53.158;6.322;2023-06-22T09:16:28;12.57;;;8.52;;
53151;SDS011;39234;53.158;6.322;2023-06-22T09:18:54;15.45;;;7.72;;
53151;SDS011;39234;53.158;6.322;2023-06-22T09:21:20;8.75;;;6.47;;
53151;SDS011;39234;53.158;6.322;2023-06-22T09:23:46;10.25;;;7.57;;
53151;SDS011;39234;53.158;6.322;2023-06-22T09:26:15;13.05;;;8.07;;
53151;SDS011;39234;53.158;6.322;2023-06-22T09:28:41;10.60;;;9.38;;
53151;SDS011;39234;53.158;6.322;2023-06-22T09:31:06;11.85;;;8.77;;
53151;SDS011;39234;53.158;6.322;2023-06-22T09:33:32;11.18;;;8.60;;
53151;SDS011;39234;53.158;6.322;2023-06-22T09:35:58;15.00;;;9.68;;
53151;SDS011;39234;53.158;6.322;2023-06-22T09:38:23;10.65;;;8.18;;
53151;SDS011;39234;53.158;6.322;2023-06-22T09:40:49;10.48;;;8.43;;
53151;SDS011;39234;53.158;6.322;2023-06-22T09:43:15;14.75;;;7.97;;
53151;SDS011;39234;53.158;6.322;2023-06-22T09:45:41;13.52;;;8.57;;
53151;SDS011;39234;53.158;6.322;2023-06-22T09:48:08;11.70;;;7.82;;
53151;SDS011;39234;53.158;6.322;2023-06-22T09:50:35;13.15;;;8.98;;
53151;SDS011;39234;53.158;6.322;2023-06-22T09:53:02;11.80;;;8.25;;
53151;SDS011;39234;53.158;6.322;2023-06-22T09:55:28;12.93;;;8.98;;
53151;SDS011;39234;53.158;6.322;2023-06-22T09:57:53;21.15;;;9.80;;
53151;SDS011;39234;53.158;6.322;2023-06-22T10:00:20;11.02;;;8.45;;
53151;SDS011;39234;53.158;6.322;2023-06-22T10:02:47;11.52;;;9.27;;
53151;SDS011;39234;53.158;6.322;2023-06-22T10:05:13;11.95;;;8.90;;
53151;SDS011;39234;53.158;6.322;2023-06-22T10:07:39;11.63;;;8.13;;
53151;SDS011;39234;53.158;6.322;2023-06-22T10:10:07;11.15;;;7.57;;
53151;SDS011;39234;53.158;6.322;2023-06-22T10:12:34;13.35;;;8.00;;
53151;SDS011;39234;53.158;6.322;2023-06-22T10:15:00;11.52;;;8.63;;
53151;SDS011;39234;53.158;6.322;2023-06-22T10:17:25;11.48;;;8.70;;
53151;SDS011;39234;53.158;6.322;2023-06-22T10:19:51;11.02;;;8.80;;
53151;SDS011;39234;53.158;6.322;2023-06-22T10:22:17;12.27;;;8.43;;
53151;SDS011;39234;53.158;6.322;2023-06-22T10:24:43;10.60;;;7.43;;
53151;SDS011;39234;53.158;6.322;2023-06-22T10:27:13;10.25;;;7.57;;
53151;SDS011;39234;53.158;6.322;2023-06-22T10:29:38;12.13;;;8.57;;
53151;SDS011;39234;53.158;6.322;2023-06-22T10:32:04;11.73;;;7.82;;
53151;SDS011;39234;53.158;6.322;2023-06-22T10:34:30;11.90;;;8.32;;
53151;SDS011;39234;53.158;6.322;2023-06-22T10:36:56;12.27;;;8.75;;
53151;SDS011;39234;53.158;6.322;2023-06-22T10:39:22;11.27;;;7.53;;
53151;SDS011;39234;53.158;6.322;2023-06-22T10:41:48;12.73;;;8.30;;
53151;SDS011;39234;53.158;6.322;2023-06-22T10:44:13;12.68;;;8.18;;
53151;SDS011;39234;53.158;6.322;2023-06-22T10:46:39;9.30;;;7.30;;
53151;SDS011;39234;53.158;6.322;2023-06-22T10:49:05;11.02;;;7.30;;
53151;SDS011;39234;53.158;6.322;2023-06-22T10:51:31;10.38;;;7.85;;
53151;SDS011;39234;53.158;6.322;2023-06-22T10:53:57;9.90;;;7.38;;
53151;SDS011;39234;53.158;6.322;2023-06-22T10:56:23;11.98;;;8.93;;
53151;SDS011;39234;53.158;6.322;2023-06-22T10:58:48;10.57;;;8.13;;
53151;SDS011;39234;53.158;6.322;2023-06-22T11:01:14;10.70;;;7.40;;
53151;SDS011;39234;53.158;6.322;2023-06-22T11:03:40;10.23;;;7.32;;
53151;SDS011;39234;53.158;6.322;2023-06-22T11:06:06;9.68;;;7.35;;
53151;SDS011;39234;53.158;6.322;2023-06-22T11:08:31;8.93;;;7.00;;
53151;SDS011;39234;53.158;6.322;2023-06-22T11:10:57;7.97;;;6.35;;
53151;SDS011;39234;53.158;6.322;2023-06-22T11:13:23;9.88;;;7.40;;
53151;SDS011;39234;53.158;6.322;2023-06-22T11:15:50;10.55;;;7.78;;
53151;SDS011;39234;53.158;6.322;2023-06-22T11:18:15;10.40;;;7.43;;
53151;SDS011;39234;53.158;6.322;2023-06-22T11:20:41;11.07;;;7.18;;
53151;SDS011;39234;53.158;6.322;2023-06-22T11:23:07;12.85;;;6.32;;
53151;SDS011;39234;53.158;6.322;2023-06-22T11:25:33;8.38;;;5.05;;
53151;SDS011;39234;53.158;6.322;2023-06-22T11:28:03;8.20;;;5.57;;
53151;SDS011;39234;53.158;6.322;2023-06-22T11:30:29;10.05;;;6.93;;
53151;SDS011;39234;53.158;6.322;2023-06-22T11:32:56;13.18;;;6.95;;
53151;SDS011;39234;53.158;6.322;2023-06-22T11:35:23;10.30;;;7.10;;
53151;SDS011;39234;53.158;6.322;2023-06-22T11:37:49;12.60;;;6.72;;
53151;SDS011;39234;53.158;6.322;2023-06-22T11:40:15;10.75;;;6.32;;
53151;SDS011;39234;53.158;6.322;2023-06-22T11:42:42;7.90;;;6.43;;
53151;SDS011;39234;53.158;6.322;2023-06-22T11:45:08;10.50;;;6.32;;
53151;SDS011;39234;53.158;6.322;2023-06-22T11:47:34;9.80;;;6.32;;
53151;SDS011;39234;53.158;6.322;2023-06-22T11:50:01;13.07;;;7.88;;
53151;SDS011;39234;53.158;6.322;2023-06-22T11:52:28;9.48;;;6.60;;
53151;SDS011;39234;53.158;6.322;2023-06-22T11:54:53;11.48;;;6.30;;
53151;SDS011;39234;53.158;6.322;2023-06-22T11:57:19;11.85;;;6.25;;
53151;SDS011;39234;53.158;6.322;2023-06-22T11:59:45;9.38;;;6.75;;
53151;SDS011;39234;53.158;6.322;2023-06-22T12:02:10;11.30;;;7.30;;
53151;SDS011;39234;53.158;6.322;2023-06-22T12:04:36;12.20;;;8.07;;
53151;SDS011;39234;53.158;6.322;2023-06-22T12:07:02;11.05;;;7.90;;
53151;SDS011;39234;53.158;6.322;2023-06-22T12:09:28;12.60;;;8.55;;
53151;SDS011;39234;53.158;6.322;2023-06-22T12:11:54;11.38;;;9.73;;
53151;SDS011;39234;53.158;6.322;2023-06-22T12:14:20;10.48;;;8.10;;
53151;SDS011;39234;53.158;6.322;2023-06-22T12:16:45;9.05;;;7.85;;
53151;SDS011;39234;53.158;6.322;2023-06-22T12:19:11;10.25;;;7.88;;
53151;SDS011;39234;53.158;6.322;2023-06-22T12:21:37;10.07;;;7.50;;
53151;SDS011;39234;53.158;6.322;2023-06-22T12:24:04;14.30;;;8.25;;
53151;SDS011;39234;53.158;6.322;2023-06-22T12:26:30;11.02;;;7.60;;
53151;SDS011;39234;53.158;6.322;2023-06-22T12:28:55;10.50;;;7.30;;
53151;SDS011;39234;53.158;6.322;2023-06-22T12:31:21;11.90;;;7.38;;
53151;SDS011;39234;53.158;6.322;2023-06-22T12:33:47;14.13;;;7.72;;
53151;SDS011;39234;53.158;6.322;2023-06-22T12:36:13;15.05;;;7.25;;
53151;SDS011;39234;53.158;6.322;2023-06-22T12:38:38;11.15;;;7.93;;
53151;SDS011;39234;53.158;6.322;2023-06-22T12:41:04;8.98;;;6.20;;
53151;SDS011;39234;53.158;6.322;2023-06-22T12:43:30;8.95;;;6.60;;
53151;SDS011;39234;53.158;6.322;2023-06-22T12:45:55;9.90;;;6.35;;
53151;SDS011;39234;53.158;6.322;2023-06-22T12:48:22;8.73;;;6.20;;
53151;SDS011;39234;53.158;6.322;2023-06-22T12:50:48;9.57;;;6.72;;
53151;SDS011;39234;53.158;6.322;2023-06-22T12:53:14;9.63;;;6.40;;
53151;SDS011;39234;53.158;6.322;2023-06-22T12:55:39;7.80;;;5.97;;
53151;SDS011;39234;53.158;6.322;2023-06-22T12:58:05;9.02;;;5.43;;
53151;SDS011;39234;53.158;6.322;2023-06-22T13:00:30;9.32;;;6.45;;
53151;SDS011;39234;53.158;6.322;2023-06-22T13:02:56;13.25;;;6.32;;
53151;SDS011;39234;53.158;6.322;2023-06-22T13:05:22;10.95;;;6.00;;
53151;SDS011;39234;53.158;6.322;2023-06-22T13:07:48;9.95;;;5.90;;
53151;SDS011;39234;53.158;6.322;2023-06-22T13:10:14;11.07;;;5.63;;
53151;SDS011;39234;53.158;6.322;2023-06-22T13:12:39;9.85;;;5.57;;
53151;SDS011;39234;53.158;6.322;2023-06-22T13:15:05;9.35;;;6.07;;
53151;SDS011;39234;53.158;6.322;2023-06-22T13:17:31;7.43;;;4.70;;
53151;SDS011;39234;53.158;6.322;2023-06-22T13:19:57;10.35;;;6.07;;
53151;SDS011;39234;53.158;6.322;2023-06-22T13:22:33;7.45;;;5.38;;
53151;SDS011;39234;53.158;6.322;2023-06-22T13:25:05;9.15;;;5.05;;
53151;SDS011;39234;53.158;6.322;2023-06-22T13:27:31;7.65;;;4.70;;
53151;SDS011;39234;53.158;6.322;2023-06-22T13:29:57;12.27;;;5.55;;
53151;SDS011;39234;53.158;6.322;2023-06-22T13:32:23;10.48;;;5.25;;
53151;SDS011;39234;53.158;6.322;2023-06-22T13:34:49;8.13;;;4.80;;
53151;SDS011;39234;53.158;6.322;2023-06-22T13:37:14;6.55;;;4.60;;
53151;SDS011;39234;53.158;6.322;2023-06-22T13:39:40;6.72;;;4.35;;
53151;SDS011;39234;53.158;6.322;2023-06-22T13:42:07;10.88;;;5.35;;
53151;SDS011;39234;53.158;6.322;2023-06-22T13:44:33;8.45;;;4.60;;
53151;SDS011;39234;53.158;6.322;2023-06-22T13:46:59;10.25;;;6.18;;
53151;SDS011;39234;53.158;6.322;2023-06-22T13:49:25;7.53;;;5.57;;
53151;SDS011;39234;53.158;6.322;2023-06-22T13:51:51;8.23;;;5.15;;
53151;SDS011;39234;53.158;6.322;2023-06-22T13:54:16;9.13;;;4.47;;
53151;SDS011;39234;53.158;6.322;2023-06-22T13:56:42;6.40;;;3.60;;
53151;SDS011;39234;53.158;6.322;2023-06-22T13:59:08;6.63;;;4.07;;
53151;SDS011;39234;53.158;6.322;2023-06-22T14:01:35;11.75;;;3.92;;
53151;SDS011;39234;53.158;6.322;2023-06-22T14:04:01;5.47;;;3.28;;
53151;SDS011;39234;53.158;6.322;2023-06-22T14:06:27;5.65;;;2.78;;
53151;SDS011;39234;53.158;6.322;2023-06-22T14:08:53;9.25;;;3.40;;
53151;SDS011;39234;53.158;6.322;2023-06-22T14:11:19;5.35;;;3.20;;
53151;SDS011;39234;53.158;6.322;2023-06-22T14:13:44;6.38;;;3.30;;
53151;SDS011;39234;53.158;6.322;2023-06-22T14:16:10;5.47;;;2.97;;
53151;SDS011;39234;53.158;6.322;2023-06-22T14:18:36;5.00;;;2.97;;
53151;SDS011;39234;53.158;6.322;2023-06-22T14:21:02;6.15;;;2.55;;
53151;SDS011;39234;53.158;6.322;2023-06-22T14:23:27;3.85;;;2.10;;
53151;SDS011;39234;53.158;6.322;2023-06-22T14:25:53;5.18;;;1.88;;
53151;SDS011;39234;53.158;6.322;2023-06-22T14:28:19;7.18;;;1.95;;
53151;SDS011;39234;53.158;6.322;2023-06-22T14:30:45;8.02;;;2.38;;
53151;SDS011;39234;53.158;6.322;2023-06-22T14:33:11;5.45;;;2.10;;